createdAt,value
2018-07-03T00:00:53.839Z,24.35
2018-07-03T00:02:59.181Z,24.30
2018-07-03T00:05:05.083Z,24.25
2018-07-03T00:07:10.505Z,24.20
2018-07-03T00:09:15.826Z,24.16
2018-07-03T00:11:20.799Z,24.15
2018-07-03T00:13:26.074Z,24.14
2018-07-03T00:15:31.414Z,24.08
2018-07-03T00:17:36.784Z,24.05
2018-07-03T00:19:42.182Z,24.01
2018-07-03T00:21:47.631Z,23.97
2018-07-03T00:23:54.136Z,23.91
2018-07-03T00:25:59.530Z,23.86
2018-07-03T00:28:05.609Z,23.82
2018-07-03T00:30:10.984Z,23.77
2018-07-03T00:32:16.373Z,23.73
2018-07-03T00:34:21.696Z,23.73
2018-07-03T00:36:27.092Z,23.75
2018-07-03T00:38:33.471Z,23.77
2018-07-03T00:40:38.763Z,23.77
2018-07-03T00:42:44.055Z,23.79
2018-07-03T00:44:49.611Z,23.78
2018-07-03T00:46:54.894Z,23.77
2018-07-03T00:48:59.875Z,23.72
2018-07-03T00:51:05.281Z,23.67
2018-07-03T00:53:10.604Z,23.63
2018-07-03T00:55:15.630Z,23.61
2018-07-03T00:57:21.083Z,23.58
2018-07-03T00:59:26.356Z,23.55
2018-07-03T01:01:31.557Z,23.52
2018-07-03T01:03:36.624Z,23.48
2018-07-03T01:05:41.827Z,23.46
2018-07-03T01:07:47.174Z,23.41
2018-07-03T01:09:52.477Z,23.36
2018-07-03T01:11:57.911Z,23.30
2018-07-03T01:14:03.579Z,23.24
2018-07-03T01:16:09.375Z,23.17
2018-07-03T01:18:14.693Z,23.09
2018-07-03T01:20:20.093Z,23.04
2018-07-03T01:22:25.488Z,22.99
2018-07-03T01:24:30.828Z,22.96
2018-07-03T01:26:36.096Z,22.91
2018-07-03T01:28:41.602Z,22.87
2018-07-03T01:30:46.967Z,22.84
2018-07-03T01:32:52.272Z,22.79
2018-07-03T01:34:57.560Z,22.77
2018-07-03T01:37:03.239Z,22.74
2018-07-03T01:39:08.865Z,22.75
2018-07-03T01:41:14.244Z,22.75
2018-07-03T01:43:19.581Z,22.74
2018-07-03T01:45:24.911Z,22.74
2018-07-03T01:47:30.187Z,22.72
2018-07-03T01:49:35.472Z,22.69
2018-07-03T01:51:40.791Z,22.68
2018-07-03T01:53:46.100Z,22.66
2018-07-03T01:55:51.452Z,22.64
2018-07-03T01:57:56.760Z,22.62
2018-07-03T02:00:02.081Z,22.61
2018-07-03T02:02:07.436Z,22.60
2018-07-03T02:04:13.363Z,22.59
2018-07-03T02:06:18.741Z,22.59
2018-07-03T02:08:24.035Z,22.58
2018-07-03T02:10:29.541Z,22.58
2018-07-03T02:12:34.887Z,22.60
2018-07-03T02:14:40.286Z,22.62
2018-07-03T02:18:49.964Z,22.65
2018-07-03T02:20:55.253Z,22.67
2018-07-03T02:23:00.604Z,22.67
2018-07-03T02:25:05.928Z,22.70
2018-07-03T02:27:11.276Z,22.71
2018-07-03T02:29:16.719Z,22.73
2018-07-03T02:31:22.123Z,22.75
2018-07-03T02:33:27.463Z,22.76
2018-07-03T02:35:32.801Z,22.78
2018-07-03T02:37:38.083Z,22.80
2018-07-03T02:39:43.544Z,22.78
2018-07-03T02:41:48.872Z,22.77
2018-07-03T02:43:54.340Z,22.78
2018-07-03T02:45:59.964Z,22.78
2018-07-03T02:48:05.443Z,22.75
2018-07-03T02:50:10.887Z,22.75
2018-07-03T02:52:16.850Z,22.73
2018-07-03T02:54:22.180Z,22.70
2018-07-03T02:56:27.573Z,22.66
2018-07-03T02:58:32.863Z,22.60
2018-07-03T03:00:38.152Z,22.55
2018-07-03T03:02:43.491Z,22.49
2018-07-03T03:04:49.306Z,22.40
2018-07-03T03:06:54.624Z,22.33
2018-07-03T03:08:59.929Z,22.27
2018-07-03T03:11:05.324Z,22.24
2018-07-03T03:13:10.660Z,22.24
2018-07-03T03:15:16.753Z,22.24
2018-07-03T03:17:22.670Z,22.26
2018-07-03T03:19:27.984Z,22.25
2018-07-03T03:21:33.610Z,22.23
2018-07-03T03:23:38.952Z,22.21
2018-07-03T03:25:44.290Z,22.19
2018-07-03T03:27:49.927Z,22.20
2018-07-03T03:29:55.542Z,22.19
2018-07-03T03:32:00.875Z,22.19
2018-07-03T03:34:06.355Z,22.17
2018-07-03T03:36:11.652Z,22.18
2018-07-03T03:38:17.014Z,22.17
2018-07-03T03:40:22.447Z,22.19
2018-07-03T03:42:27.782Z,22.21
2018-07-03T03:44:33.140Z,22.23
2018-07-03T03:46:38.461Z,22.27
2018-07-03T03:48:43.822Z,22.29
2018-07-03T03:50:49.222Z,22.31
2018-07-03T03:52:54.635Z,22.32
2018-07-03T03:54:59.973Z,22.30
2018-07-03T03:57:06.708Z,22.27
2018-07-03T03:59:12.111Z,22.25
2018-07-03T04:01:17.470Z,22.21
2018-07-03T04:03:22.774Z,22.21
2018-07-03T04:05:28.123Z,22.23
2018-07-03T04:07:33.471Z,22.23
2018-07-03T04:09:38.817Z,22.24
2018-07-03T04:11:44.141Z,22.25
2018-07-03T04:13:49.539Z,22.27
2018-07-03T04:15:54.965Z,22.30
2018-07-03T04:18:00.264Z,22.31
2018-07-03T04:20:06.047Z,22.29
2018-07-03T04:22:11.418Z,22.28
2018-07-03T04:24:16.887Z,22.26
2018-07-03T04:26:22.235Z,22.23
2018-07-03T04:28:27.548Z,22.18
2018-07-03T04:30:32.863Z,22.13
2018-07-03T04:32:38.124Z,22.09
2018-07-03T04:34:43.684Z,22.05
2018-07-03T04:36:49.305Z,22.03
2018-07-03T04:38:54.585Z,22.01
2018-07-03T04:40:59.884Z,22.02
2018-07-03T04:43:05.311Z,22.04
2018-07-03T04:45:10.652Z,22.06
2018-07-03T04:47:16.945Z,22.11
2018-07-03T04:49:22.215Z,22.15
2018-07-03T04:51:27.568Z,22.17
2018-07-03T04:53:32.911Z,22.17
2018-07-03T04:55:38.222Z,22.18
2018-07-03T04:57:43.565Z,22.21
2018-07-03T04:59:48.930Z,22.26
2018-07-03T05:01:54.297Z,22.31
2018-07-03T05:03:59.764Z,22.32
2018-07-03T05:06:05.193Z,22.32
2018-07-03T05:08:10.544Z,22.33
2018-07-03T05:10:16.910Z,22.34
2018-07-03T05:12:22.240Z,22.34
2018-07-03T05:14:27.684Z,22.33
2018-07-03T05:16:32.998Z,22.36
2018-07-03T05:18:38.414Z,22.41
2018-07-03T05:20:43.864Z,22.47
2018-07-03T05:22:49.509Z,22.54
2018-07-03T05:24:54.877Z,22.61
2018-07-03T05:27:00.268Z,22.67
2018-07-03T05:29:05.930Z,22.72
2018-07-03T05:31:11.353Z,22.74
2018-07-03T05:33:17.324Z,22.79
2018-07-03T05:35:22.608Z,22.82
2018-07-03T05:37:27.908Z,22.88
2018-07-03T05:39:33.262Z,22.93
2018-07-03T05:41:38.984Z,23.01
2018-07-03T05:43:44.347Z,23.05
2018-07-03T05:45:49.800Z,23.09
2018-07-03T05:47:55.142Z,23.15
2018-07-03T05:50:00.618Z,23.18
2018-07-03T05:52:06.174Z,23.23
2018-07-03T05:54:11.550Z,23.24
2018-07-03T05:56:17.315Z,23.29
2018-07-03T05:58:22.580Z,23.32
2018-07-03T06:00:27.958Z,23.34
2018-07-03T06:02:33.278Z,23.36
2018-07-03T06:04:38.666Z,23.37
2018-07-03T06:06:44.013Z,23.41
2018-07-03T06:08:49.346Z,23.47
2018-07-03T06:10:55.019Z,23.55
2018-07-03T06:13:00.349Z,23.74
2018-07-03T06:15:06.272Z,24.20
2018-07-03T06:17:11.686Z,24.87
2018-07-03T06:19:17.320Z,25.67
2018-07-03T06:21:22.922Z,26.48
2018-07-03T06:23:28.071Z,27.30
2018-07-03T06:25:33.078Z,28.13
2018-07-03T06:27:38.295Z,28.91
2018-07-03T06:29:43.688Z,29.71
2018-07-03T06:31:49.047Z,30.45
2018-07-03T06:33:54.352Z,31.11
2018-07-03T06:35:59.718Z,31.69
2018-07-03T06:38:05.166Z,32.24
2018-07-03T06:40:10.544Z,32.78
2018-07-03T06:42:15.844Z,33.26
2018-07-03T06:44:21.177Z,33.74
2018-07-03T06:46:26.499Z,34.19
2018-07-03T06:48:31.907Z,34.60
2018-07-03T06:50:37.250Z,34.94
2018-07-03T06:52:42.572Z,35.30
2018-07-03T06:54:47.887Z,35.68
2018-07-03T06:56:54.272Z,36.07
2018-07-03T06:58:59.926Z,36.46
2018-07-03T07:01:05.635Z,36.83
2018-07-03T07:03:10.962Z,37.01
2018-07-03T07:05:17.354Z,37.11
2018-07-03T07:07:22.578Z,37.17
2018-07-03T07:09:27.989Z,37.29
2018-07-03T07:11:33.355Z,37.39
2018-07-03T07:13:38.632Z,37.53
2018-07-03T07:15:44.525Z,37.70
2018-07-03T07:17:49.943Z,37.83
2018-07-03T07:19:55.260Z,37.91
2018-07-03T07:22:00.648Z,37.96
2018-07-03T07:24:06.049Z,37.87
2018-07-03T07:26:11.041Z,37.78
2018-07-03T07:28:17.298Z,37.56
2018-07-03T07:30:22.912Z,37.42
2018-07-03T07:32:28.248Z,37.29
2018-07-03T07:34:33.763Z,37.10
2018-07-03T07:36:39.091Z,37.05
2018-07-03T07:38:44.504Z,37.09
2018-07-03T07:40:49.835Z,37.09
2018-07-03T07:42:55.225Z,37.01
2018-07-03T07:45:00.570Z,36.79
2018-07-03T07:47:05.936Z,36.30
2018-07-03T07:49:11.266Z,35.68
2018-07-03T07:51:17.514Z,35.03
2018-07-03T07:53:22.901Z,34.44
2018-07-03T07:55:28.288Z,33.82
2018-07-03T07:57:33.587Z,33.23
2018-07-03T07:59:38.976Z,32.74
2018-07-03T08:01:44.439Z,32.28
2018-07-03T08:03:49.779Z,31.91
2018-07-03T08:05:55.120Z,31.55
2018-07-03T08:08:00.799Z,31.28
2018-07-03T08:10:06.184Z,31.07
2018-07-03T08:12:11.667Z,30.83
2018-07-03T08:14:17.627Z,30.58
2018-07-03T08:16:22.973Z,30.34
2018-07-03T08:18:28.549Z,30.12
2018-07-03T08:20:33.909Z,29.99
2018-07-03T08:22:39.236Z,29.88
2018-07-03T08:24:44.831Z,29.75
2018-07-03T08:26:50.238Z,29.69
2018-07-03T08:28:55.731Z,29.67
2018-07-03T08:31:01.041Z,29.64
2018-07-03T08:33:06.792Z,29.58
2018-07-03T08:35:12.166Z,29.57
2018-07-03T08:37:17.750Z,29.53
2018-07-03T08:39:23.110Z,29.51
2018-07-03T08:41:28.429Z,29.48
2018-07-03T08:43:33.746Z,29.42
2018-07-03T08:45:38.925Z,29.36
2018-07-03T08:47:44.282Z,29.33
2018-07-03T08:49:49.954Z,29.31
2018-07-03T08:51:55.382Z,29.29
2018-07-03T08:54:01.204Z,29.27
2018-07-03T08:56:06.652Z,29.24
2018-07-03T08:58:12.094Z,29.24
2018-07-03T09:00:17.958Z,29.27
2018-07-03T09:02:23.321Z,29.31
2018-07-03T09:04:28.838Z,29.31
2018-07-03T09:06:34.300Z,29.32
2018-07-03T09:08:39.693Z,29.31
2018-07-03T09:10:45.090Z,29.31
2018-07-03T09:12:50.419Z,29.33
2018-07-03T09:14:55.852Z,29.37
2018-07-03T09:17:06.416Z,29.40
2018-07-03T09:19:11.806Z,29.45
2018-07-03T09:21:17.394Z,29.49
2018-07-03T09:23:22.760Z,29.52
2018-07-03T09:25:28.127Z,29.55
2018-07-03T09:27:33.820Z,29.59
2018-07-03T09:29:39.410Z,29.64
2018-07-03T09:31:44.862Z,29.71
2018-07-03T09:33:50.249Z,29.75
2018-07-03T09:35:55.979Z,29.76
2018-07-03T09:38:01.323Z,29.79
2018-07-03T09:40:07.025Z,29.82
2018-07-03T09:42:12.684Z,29.85
2018-07-03T09:44:18.181Z,29.89
2018-07-03T09:46:23.966Z,29.93
2018-07-03T09:48:29.430Z,29.96
2018-07-03T09:50:34.895Z,29.99
2018-07-03T09:52:40.487Z,30.03
2018-07-03T09:54:45.894Z,30.05
2018-07-03T09:56:51.676Z,30.11
2018-07-03T09:58:57.234Z,30.16
2018-07-03T10:01:08.274Z,30.19
2018-07-03T10:03:13.597Z,30.23
2018-07-03T10:05:19.105Z,30.22
2018-07-03T10:07:24.466Z,30.23
2018-07-03T10:09:29.809Z,30.26
2018-07-03T10:11:35.108Z,30.31
2018-07-03T10:13:40.462Z,30.36
2018-07-03T10:15:45.815Z,30.40
2018-07-03T10:17:51.147Z,30.46
2018-07-03T10:19:56.470Z,30.45
2018-07-03T10:22:01.812Z,30.48
2018-07-03T10:24:07.237Z,30.50
2018-07-03T10:26:12.567Z,30.53
2018-07-03T10:28:18.077Z,30.57
2018-07-03T10:30:23.817Z,30.60
2018-07-03T10:32:29.112Z,30.63
2018-07-03T10:34:34.488Z,30.65
2018-07-03T10:36:39.898Z,30.69
2018-07-03T10:38:45.317Z,30.74
2018-07-03T10:40:50.704Z,30.78
2018-07-03T10:42:56.094Z,30.82
2018-07-03T10:45:01.538Z,30.86
2018-07-03T10:47:06.885Z,30.90
2018-07-03T10:49:12.253Z,30.95
2018-07-03T10:51:17.972Z,30.98
2018-07-03T10:53:23.358Z,31.03
2018-07-03T10:55:28.675Z,31.08
2018-07-03T10:57:34.125Z,31.13
2018-07-03T10:59:39.517Z,31.16
2018-07-03T11:01:44.914Z,31.18
2018-07-03T11:03:50.553Z,31.20
2018-07-03T11:05:55.948Z,31.19
2018-07-03T11:08:01.274Z,31.22
2018-07-03T11:10:06.687Z,31.26
2018-07-03T11:12:12.012Z,31.29
2018-07-03T11:14:17.991Z,31.33
2018-07-03T11:16:23.360Z,31.36
2018-07-03T11:18:28.736Z,31.39
2018-07-03T11:20:34.146Z,31.42
2018-07-03T11:22:39.462Z,31.43
2018-07-03T11:24:44.932Z,31.44
2018-07-03T11:26:50.271Z,31.44
2018-07-03T11:28:55.633Z,31.45
2018-07-03T11:31:01.011Z,31.46
2018-07-03T11:33:06.521Z,31.47
2018-07-03T11:35:12.281Z,31.48
2018-07-03T11:37:18.045Z,31.50
2018-07-03T11:39:23.436Z,31.52
2018-07-03T11:41:29.268Z,31.57
2018-07-03T11:43:34.724Z,31.59
2018-07-03T11:45:40.046Z,31.59
2018-07-03T11:47:45.656Z,31.59
2018-07-03T11:49:50.969Z,31.62
2018-07-03T11:51:56.302Z,31.64
2018-07-03T11:54:01.845Z,31.67
2018-07-03T11:56:07.255Z,31.69
2018-07-03T11:58:12.688Z,31.70
2018-07-03T12:00:18.826Z,31.70
2018-07-03T12:02:24.152Z,31.74
2018-07-03T12:04:29.575Z,31.77
2018-07-03T12:06:34.974Z,31.81
2018-07-03T12:08:40.391Z,31.85
2018-07-03T12:10:52.217Z,31.90
2018-07-03T12:12:57.709Z,31.92
2018-07-03T12:15:03.132Z,31.94
2018-07-03T12:17:08.607Z,31.95
2018-07-03T12:19:14.048Z,31.96
2018-07-03T12:21:19.433Z,31.96
2018-07-03T12:23:26.144Z,31.98
2018-07-03T12:25:40.181Z,31.99
2018-07-03T12:27:45.533Z,31.99
2018-07-03T12:29:51.452Z,32.01
2018-07-03T12:31:56.832Z,32.03
2018-07-03T12:34:02.260Z,32.06
2018-07-03T12:36:12.517Z,32.06
2018-07-03T12:38:18.204Z,32.07
2018-07-03T12:40:23.623Z,32.10
2018-07-03T12:42:28.942Z,32.12
2018-07-03T12:44:34.311Z,32.15
2018-07-03T12:46:40.102Z,32.17
2018-07-03T12:48:45.851Z,32.19
2018-07-03T12:50:51.604Z,32.20
2018-07-03T12:52:57.051Z,32.25
2018-07-03T12:55:02.383Z,32.27
2018-07-03T12:57:08.103Z,32.33
2018-07-03T12:59:13.481Z,32.39
2018-07-03T13:01:18.947Z,32.44
2018-07-03T13:10:32.333Z,32.65
2018-07-03T13:16:53.518Z,32.73
2018-07-03T13:18:59.000Z,32.78
2018-07-03T13:21:04.505Z,32.83
2018-07-03T13:23:09.535Z,32.85
2018-07-03T13:25:14.937Z,32.87
2018-07-03T13:27:20.390Z,32.88
2018-07-03T13:29:25.774Z,32.88
2018-07-03T13:31:31.179Z,32.88
2018-07-03T13:33:36.506Z,32.89
2018-07-03T13:35:41.859Z,32.89
2018-07-03T13:37:47.301Z,32.90
2018-07-03T13:39:52.389Z,32.92
2018-07-03T13:41:57.645Z,32.93
2018-07-03T13:44:03.056Z,32.98
2018-07-03T13:46:08.518Z,32.97
2018-07-03T13:48:15.333Z,32.97
2018-07-03T13:50:21.159Z,32.97
2018-07-03T13:52:26.830Z,32.98
2018-07-03T13:54:32.629Z,32.96
2018-07-03T13:56:38.939Z,33.00
2018-07-03T13:58:44.390Z,33.00
2018-07-03T14:00:50.026Z,33.03
2018-07-03T14:02:55.751Z,33.03
2018-07-03T14:05:08.319Z,33.04
2018-07-03T14:07:14.395Z,33.04
2018-07-03T14:09:19.746Z,33.05
2018-07-03T14:11:25.178Z,33.05
2018-07-03T14:13:30.620Z,33.04
2018-07-03T14:15:36.048Z,33.03
2018-07-03T14:17:41.427Z,33.00
2018-07-03T14:19:46.940Z,32.97
2018-07-03T14:21:52.726Z,32.98
2018-07-03T14:23:58.083Z,32.99
2018-07-03T14:26:04.462Z,33.04
2018-07-03T14:28:10.092Z,33.07
2018-07-03T14:30:15.512Z,33.12
2018-07-03T14:32:20.962Z,33.13
2018-07-03T14:34:26.372Z,33.17
2018-07-03T14:36:31.749Z,33.18
2018-07-03T14:38:37.191Z,33.18
2018-07-03T14:40:42.528Z,33.18
2018-07-03T14:42:47.949Z,33.18
2018-07-03T14:44:53.363Z,33.20
2018-07-03T14:46:58.826Z,33.24
2018-07-03T14:49:04.464Z,33.25
2018-07-03T14:51:09.926Z,33.29
2018-07-03T14:53:15.507Z,33.30
2018-07-03T14:55:20.948Z,33.33
2018-07-03T14:57:26.595Z,33.33
2018-07-03T14:59:32.404Z,33.34
2018-07-03T15:01:38.007Z,33.35
2018-07-03T15:03:50.515Z,33.35
2018-07-03T15:05:56.953Z,33.37
2018-07-03T15:08:02.330Z,33.37
2018-07-03T15:10:07.775Z,33.38
2018-07-03T15:12:13.160Z,33.38
2018-07-03T15:14:18.956Z,33.36
2018-07-03T15:16:24.308Z,33.35
2018-07-03T15:18:34.967Z,33.35
2018-07-03T15:20:40.555Z,33.35
2018-07-03T15:22:45.917Z,33.34
2018-07-03T15:24:51.330Z,33.31
2018-07-03T15:26:56.720Z,33.30
2018-07-03T15:29:02.061Z,33.33
2018-07-03T15:31:07.544Z,33.33
2018-07-03T15:33:12.893Z,33.33
2018-07-03T15:35:18.600Z,33.35
2018-07-03T15:37:23.965Z,33.36
2018-07-03T15:39:30.196Z,33.35
2018-07-03T15:41:36.417Z,33.36
2018-07-03T15:43:53.409Z,33.34
2018-07-03T15:45:58.773Z,33.34
2018-07-03T15:48:04.283Z,33.34
2018-07-03T15:50:10.796Z,33.36
2018-07-03T15:52:16.161Z,33.38
2018-07-03T15:54:21.675Z,33.40
2018-07-03T15:56:27.063Z,33.41
2018-07-03T15:58:32.404Z,33.40
2018-07-03T16:00:37.867Z,33.41
2018-07-03T16:03:56.756Z,33.41
2018-07-03T16:07:15.199Z,33.38
2018-07-03T16:09:20.495Z,33.33
2018-07-03T16:11:25.893Z,33.31
2018-07-03T16:13:31.287Z,33.27
2018-07-03T16:15:36.747Z,33.22
2018-07-03T16:17:41.817Z,33.18
2018-07-03T16:19:52.311Z,33.16
2018-07-03T16:21:57.848Z,33.12
2018-07-03T16:24:03.264Z,33.11
2018-07-03T16:26:08.693Z,33.11
2018-07-03T16:28:14.077Z,33.10
2018-07-03T16:30:19.449Z,33.08
2018-07-03T16:32:24.850Z,33.04
2018-07-03T16:34:30.261Z,33.03
2018-07-03T16:36:35.667Z,33.02
2018-07-03T16:38:41.140Z,33.04
2018-07-03T16:40:46.409Z,33.04
2018-07-03T16:42:51.752Z,33.07
2018-07-03T16:44:57.167Z,33.08
2018-07-03T16:47:02.528Z,33.10
2018-07-03T16:49:07.932Z,33.07
2018-07-03T16:51:13.352Z,33.05
2018-07-03T16:53:18.975Z,33.04
2018-07-03T16:55:24.329Z,33.05
2018-07-03T16:57:29.749Z,33.02
2018-07-03T16:59:35.173Z,33.01
2018-07-03T17:01:40.981Z,33.02
2018-07-03T17:03:46.454Z,33.01
2018-07-03T17:05:51.855Z,32.98
2018-07-03T17:07:57.288Z,32.96
2018-07-03T17:10:02.973Z,32.94
2018-07-03T17:12:08.622Z,32.95
2018-07-03T17:14:14.212Z,32.97
2018-07-03T17:16:19.676Z,33.00
2018-07-03T17:18:25.692Z,33.02
2018-07-03T17:20:31.252Z,33.05
2018-07-03T17:22:36.673Z,33.07
2018-07-03T17:24:42.101Z,33.08
2018-07-03T17:26:47.638Z,33.09
2018-07-03T17:28:53.205Z,33.13
2018-07-03T17:30:58.662Z,33.15
2018-07-03T17:33:04.175Z,33.18
2018-07-03T17:35:09.622Z,33.19
2018-07-03T17:37:15.016Z,33.19
2018-07-03T17:39:20.556Z,33.20
2018-07-03T17:41:36.879Z,33.22
2018-07-03T17:44:13.366Z,33.19
2018-07-03T17:46:19.030Z,33.15
2018-07-03T17:48:24.728Z,33.12
2018-07-03T17:50:30.865Z,33.08
2018-07-03T17:52:38.534Z,33.04
2018-07-03T17:54:55.487Z,32.99
2018-07-03T17:57:09.625Z,32.95
2018-07-03T17:59:15.620Z,32.89
2018-07-03T18:01:23.897Z,32.84
2018-07-03T18:06:12.381Z,32.71
2018-07-03T18:08:18.556Z,32.67
2018-07-03T18:10:24.078Z,32.60
2018-07-03T18:12:29.456Z,32.56
2018-07-03T18:14:34.937Z,32.52
2018-07-03T18:16:40.356Z,32.50
2018-07-03T18:18:45.874Z,32.46
2018-07-03T18:20:51.229Z,32.44
2018-07-03T18:22:56.782Z,32.41
2018-07-03T18:25:01.951Z,32.35
2018-07-03T18:27:07.584Z,32.32
2018-07-03T18:29:13.206Z,32.26
2018-07-03T18:31:18.701Z,32.24
2018-07-03T18:33:24.259Z,32.20
2018-07-03T18:35:29.619Z,32.15
2018-07-03T18:37:34.999Z,32.10
2018-07-03T18:39:47.258Z,32.05
2018-07-03T18:41:52.604Z,31.99
2018-07-03T18:43:58.089Z,31.94
2018-07-03T18:46:03.500Z,31.89
2018-07-03T18:48:08.916Z,31.86
2018-07-03T18:50:14.315Z,31.81
2018-07-03T18:52:19.772Z,31.78
2018-07-03T18:54:24.947Z,31.74
2018-07-03T18:56:30.188Z,31.71
2018-07-03T18:58:35.567Z,31.68
2018-07-03T19:00:40.938Z,31.63
2018-07-03T19:02:46.354Z,31.59
2018-07-03T19:04:51.794Z,31.53
2018-07-03T19:06:57.909Z,31.48
2018-07-03T19:09:03.585Z,31.44
2018-07-03T19:11:09.133Z,31.40
2018-07-03T19:13:14.465Z,31.37
2018-07-03T19:15:19.861Z,31.32
2018-07-03T19:17:25.382Z,31.29
2018-07-03T19:19:31.583Z,31.24
2018-07-03T19:21:36.962Z,31.20
2018-07-03T19:23:42.417Z,31.14
2018-07-03T19:25:47.791Z,31.10
2018-07-03T19:27:53.196Z,31.04
2018-07-03T19:29:58.604Z,31.00
2018-07-03T19:32:04.032Z,30.97
2018-07-03T19:34:09.456Z,30.93
2018-07-03T19:36:14.907Z,30.90
2018-07-03T19:38:20.205Z,30.86
2018-07-03T19:40:25.645Z,30.80
2018-07-03T19:42:31.088Z,30.77
2018-07-03T19:44:36.487Z,30.73
2018-07-03T19:46:41.943Z,30.67
2018-07-03T19:48:47.353Z,30.62
2018-07-03T19:50:53.082Z,30.56
2018-07-03T19:52:58.488Z,30.51
2018-07-03T19:55:03.899Z,30.46
2018-07-03T19:57:09.392Z,30.43
2018-07-03T19:59:14.800Z,30.41
2018-07-03T20:01:20.164Z,30.41
2018-07-03T20:03:25.551Z,30.40
2018-07-03T20:05:30.955Z,30.38
2018-07-03T20:07:36.454Z,30.30
2018-07-03T20:09:42.086Z,30.19
2018-07-03T20:11:47.515Z,30.10
2018-07-03T20:13:53.235Z,30.02
2018-07-03T20:15:58.657Z,29.95
2018-07-03T20:18:04.081Z,29.87
2018-07-03T20:20:09.542Z,29.79
2018-07-03T20:22:14.941Z,29.70
2018-07-03T20:24:20.477Z,29.63
2018-07-03T20:26:25.913Z,29.56
2018-07-03T20:28:31.258Z,29.48
2018-07-03T20:30:36.715Z,29.43
2018-07-03T20:32:42.341Z,29.36
2018-07-03T20:34:48.512Z,29.25
2018-07-03T20:36:54.558Z,29.15
2018-07-03T20:38:59.981Z,29.08
2018-07-03T20:41:06.753Z,29.02
2018-07-03T20:43:12.112Z,28.96
2018-07-03T20:45:18.414Z,28.89
2018-07-03T20:47:23.770Z,28.82
2018-07-03T20:49:28.870Z,28.75
2018-07-03T20:51:34.181Z,28.69
2018-07-03T20:53:39.533Z,28.63
2018-07-03T20:55:45.097Z,28.57
2018-07-03T20:57:50.401Z,28.53
2018-07-03T20:59:56.093Z,28.45
2018-07-03T21:02:01.425Z,28.36
2018-07-03T21:04:06.622Z,28.30
2018-07-03T21:06:12.012Z,28.24
2018-07-03T21:08:17.339Z,28.20
2018-07-03T21:10:22.746Z,28.16
2018-07-03T21:12:28.099Z,28.12
2018-07-03T21:14:33.436Z,28.07
2018-07-03T21:16:38.768Z,28.05
2018-07-03T21:18:43.813Z,28.03
2018-07-03T21:20:49.056Z,28.04
2018-07-03T21:22:54.428Z,28.02
2018-07-03T21:25:06.429Z,27.96
2018-07-03T21:27:11.753Z,27.84
2018-07-03T21:29:17.059Z,27.75
2018-07-03T21:31:22.433Z,27.69
2018-07-03T21:33:27.795Z,27.65
2018-07-03T21:35:33.153Z,27.63
2018-07-03T21:37:38.528Z,27.64
2018-07-03T21:39:43.918Z,27.61
2018-07-03T21:41:49.051Z,27.54
2018-07-03T21:43:54.296Z,27.43
2018-07-03T21:45:59.709Z,27.35
2018-07-03T21:48:10.132Z,27.32
2018-07-03T21:50:15.444Z,27.29
2018-07-03T21:52:20.799Z,27.27
2018-07-03T21:54:26.193Z,27.24
2018-07-03T21:56:31.504Z,27.22
2018-07-03T21:58:36.973Z,27.18
2018-07-03T22:00:42.612Z,27.12
2018-07-03T22:02:47.970Z,27.10
2018-07-03T22:04:53.341Z,27.10
2018-07-03T22:06:58.622Z,27.08
2018-07-03T22:09:05.069Z,27.09
2018-07-03T22:11:10.347Z,27.08
2018-07-03T22:13:15.649Z,27.05
2018-07-03T22:15:20.996Z,27.02
2018-07-03T22:17:26.264Z,26.98
2018-07-03T22:19:31.572Z,26.92
2018-07-03T22:21:37.677Z,26.89
2018-07-03T22:23:43.054Z,26.86
2018-07-03T22:25:48.381Z,26.85
2018-07-03T22:27:53.725Z,26.82
2018-07-03T22:29:59.075Z,26.80
2018-07-03T22:32:04.403Z,26.81
2018-07-03T22:34:09.698Z,26.84
2018-07-03T22:36:15.027Z,26.84
2018-07-03T22:38:20.328Z,26.81
2018-07-03T22:40:25.304Z,26.76
2018-07-03T22:42:30.507Z,26.76
2018-07-03T22:44:35.824Z,26.73
2018-07-03T22:46:41.148Z,26.71
2018-07-03T22:48:46.485Z,26.71
2018-07-03T22:50:51.807Z,26.68
2018-07-03T22:52:57.140Z,26.66
2018-07-03T22:55:02.489Z,26.68
2018-07-03T22:57:07.782Z,26.70
2018-07-03T22:59:13.138Z,26.72
2018-07-03T23:01:18.406Z,26.74
2018-07-03T23:03:23.735Z,26.75
2018-07-03T23:05:29.073Z,26.76
2018-07-03T23:07:34.413Z,26.76
2018-07-03T23:09:39.792Z,26.77
2018-07-03T23:11:45.100Z,26.77
2018-07-03T23:13:50.628Z,26.77
2018-07-03T23:15:55.917Z,26.76
2018-07-03T23:18:01.220Z,26.75
2018-07-03T23:20:06.552Z,26.74
2018-07-03T23:22:11.838Z,26.73
2018-07-03T23:24:17.159Z,26.71
2018-07-03T23:26:22.434Z,26.72
2018-07-03T23:28:27.694Z,26.70
2018-07-03T23:30:32.794Z,26.66
2018-07-03T23:32:37.985Z,26.62
2018-07-03T23:34:43.292Z,26.54
2018-07-03T23:36:48.316Z,26.46
2018-07-03T23:38:53.546Z,26.40
2018-07-03T23:40:58.871Z,26.33
2018-07-03T23:43:04.161Z,26.28
2018-07-03T23:45:09.484Z,26.21
2018-07-03T23:47:31.648Z,26.13
2018-07-03T23:49:53.709Z,26.07
2018-07-03T23:52:15.969Z,26.00
2018-07-03T23:54:37.960Z,25.92
2018-07-03T23:57:00.460Z,25.85
2018-07-03T23:59:22.656Z,25.79
